createdAt,value
2023-03-02T00:01:25.496Z,23.27
2023-03-02T00:03:55.347Z,25.10
2023-03-02T00:06:23.153Z,26.47
2023-03-02T00:08:50.907Z,29.20
2023-03-02T00:11:18.726Z,28.37
2023-03-02T00:13:49.605Z,24.27
2023-03-02T00:16:17.443Z,25.87
2023-03-02T00:18:45.213Z,23.10
2023-03-02T00:21:14.474Z,25.43
2023-03-02T00:23:42.279Z,25.10
2023-03-02T00:26:10.160Z,25.10
2023-03-02T00:28:38.572Z,27.33
2023-03-02T00:31:07.238Z,24.60
2023-03-02T00:33:35.276Z,26.23
2023-03-02T00:36:06.151Z,26.67
2023-03-02T00:38:35.266Z,25.87
2023-03-02T00:41:03.550Z,25.50
2023-03-02T00:43:33.361Z,27.83
2023-03-02T00:46:01.202Z,27.77
2023-03-02T00:48:31.649Z,26.30
2023-03-02T00:51:01.665Z,26.90
2023-03-02T00:53:29.536Z,26.13
2023-03-02T00:55:58.841Z,25.93
2023-03-02T00:58:27.077Z,28.07
2023-03-02T01:00:56.747Z,26.07
2023-03-02T01:03:24.918Z,25.83
2023-03-02T01:05:55.214Z,26.13
2023-03-02T01:08:25.044Z,27.47
2023-03-02T01:10:54.296Z,27.30
2023-03-02T01:13:23.883Z,24.37
2023-03-02T01:16:01.152Z,27.03
2023-03-02T01:18:28.993Z,29.10
2023-03-02T01:21:02.930Z,26.23
2023-03-02T01:23:30.675Z,25.97
2023-03-02T01:25:58.521Z,27.63
2023-03-02T01:28:27.808Z,26.60
2023-03-02T01:30:55.605Z,26.80
2023-03-02T01:33:24.217Z,27.73
2023-03-02T01:35:52.027Z,27.83
2023-03-02T01:38:19.919Z,27.10
2023-03-02T01:40:47.629Z,27.53
2023-03-02T01:43:17.294Z,28.27
2023-03-02T01:45:51.823Z,26.90
2023-03-02T01:48:30.356Z,27.80
2023-03-02T01:50:59.630Z,26.93
2023-03-02T01:53:30.783Z,32.53
2023-03-02T01:56:02.750Z,28.17
2023-03-02T01:58:33.610Z,33.77
2023-03-02T02:01:03.248Z,27.47
2023-03-02T02:03:32.017Z,28.63
2023-03-02T02:06:10.096Z,29.80
2023-03-02T02:08:39.416Z,28.20
2023-03-02T02:11:07.764Z,28.23
2023-03-02T02:13:35.824Z,28.40
2023-03-02T02:16:08.482Z,30.97
2023-03-02T02:18:39.135Z,30.10
2023-03-02T02:21:07.944Z,32.07
2023-03-02T02:23:41.086Z,24.53
2023-03-02T02:26:18.301Z,24.03
2023-03-02T02:28:51.783Z,31.13
2023-03-02T02:31:26.589Z,30.00
2023-03-02T02:34:02.848Z,28.87
2023-03-02T02:36:35.677Z,28.73
2023-03-02T02:39:12.577Z,28.83
2023-03-02T02:41:43.321Z,26.10
2023-03-02T02:44:15.753Z,29.63
2023-03-02T02:46:44.562Z,29.00
2023-03-02T02:49:20.476Z,30.43
2023-03-02T02:51:48.413Z,30.10
2023-03-02T02:54:20.553Z,29.10
2023-03-02T02:56:54.451Z,26.87
2023-03-02T02:59:25.325Z,29.23
2023-03-02T03:01:55.850Z,30.07
2023-03-02T03:04:27.462Z,29.30
2023-03-02T03:06:57.503Z,29.10
2023-03-02T03:09:26.174Z,29.93
2023-03-02T03:11:58.255Z,28.53
2023-03-02T03:14:30.733Z,28.73
2023-03-02T03:16:58.929Z,27.23
2023-03-02T03:19:29.292Z,27.47
2023-03-02T03:22:00.271Z,27.67
2023-03-02T03:24:34.038Z,29.30
2023-03-02T03:27:05.326Z,30.53
2023-03-02T03:29:36.425Z,30.67
2023-03-02T03:32:08.812Z,28.03
2023-03-02T03:34:40.917Z,27.13
2023-03-02T03:37:17.696Z,30.50
2023-03-02T03:39:46.199Z,29.30
2023-03-02T03:42:16.039Z,28.53
2023-03-02T03:44:44.098Z,24.50
2023-03-02T03:47:12.067Z,26.93
2023-03-02T03:49:40.465Z,23.03
2023-03-02T03:52:08.903Z,26.53
2023-03-02T03:54:36.798Z,21.27
2023-03-02T03:57:10.560Z,25.70
2023-03-02T03:59:39.685Z,26.27
2023-03-02T04:02:08.042Z,22.63
2023-03-02T04:04:39.559Z,26.83
2023-03-02T04:07:11.559Z,25.53
2023-03-02T04:09:39.429Z,28.63
2023-03-02T04:12:10.297Z,23.03
2023-03-02T04:14:41.372Z,24.00
2023-03-02T04:17:09.262Z,29.50
2023-03-02T04:19:41.589Z,24.40
2023-03-02T04:22:10.500Z,21.53
2023-03-02T04:24:38.384Z,23.00
2023-03-02T04:27:09.737Z,21.57
2023-03-02T04:29:38.311Z,24.90
2023-03-02T04:32:09.436Z,28.30
2023-03-02T04:34:39.374Z,24.53
2023-03-02T04:37:10.023Z,29.57
2023-03-02T04:39:38.030Z,26.43
2023-03-02T04:42:05.900Z,28.07
2023-03-02T04:44:33.712Z,28.07
2023-03-02T04:47:01.514Z,25.13
2023-03-02T04:49:33.266Z,28.13
2023-03-02T04:52:01.043Z,26.60
2023-03-02T04:54:29.374Z,23.60
2023-03-02T04:56:58.221Z,25.60
2023-03-02T04:59:35.937Z,24.60
2023-03-02T05:02:04.691Z,24.20
2023-03-02T05:04:33.050Z,23.47
2023-03-02T05:07:01.056Z,23.17
2023-03-02T05:09:30.847Z,23.13
2023-03-02T05:12:01.124Z,22.73
2023-03-02T05:14:29.743Z,28.03
2023-03-02T05:16:59.596Z,22.17
2023-03-02T05:19:27.772Z,24.70
2023-03-02T05:21:56.582Z,22.67
2023-03-02T05:24:24.553Z,22.67
2023-03-02T05:26:55.138Z,29.10
2023-03-02T05:29:23.244Z,26.83
2023-03-02T05:31:54.457Z,24.90
2023-03-02T05:34:24.008Z,29.70
2023-03-02T05:36:52.030Z,31.33
2023-03-02T05:39:20.052Z,34.27
2023-03-02T05:41:48.017Z,28.33
2023-03-02T05:44:16.464Z,28.17
2023-03-02T05:46:44.466Z,29.90
2023-03-02T05:49:12.448Z,27.37
2023-03-02T05:51:41.937Z,29.37
2023-03-02T05:54:09.850Z,31.00
2023-03-02T05:56:37.697Z,26.87
2023-03-02T05:59:08.850Z,27.17
2023-03-02T06:01:37.145Z,26.77
2023-03-02T06:04:05.153Z,26.50
2023-03-02T06:06:34.248Z,30.53
2023-03-02T06:09:03.783Z,27.30
2023-03-02T06:11:31.586Z,26.73
2023-03-02T06:13:59.463Z,30.63
2023-03-02T06:16:27.571Z,25.90
2023-03-02T06:18:55.670Z,30.10
2023-03-02T06:21:23.630Z,29.77
2023-03-02T06:23:51.549Z,27.10
2023-03-02T06:26:20.991Z,26.97
2023-03-02T06:28:53.282Z,25.63
2023-03-02T06:31:21.896Z,24.20
2023-03-02T06:33:50.933Z,31.97
2023-03-02T06:36:19.493Z,26.57
2023-03-02T06:38:47.447Z,29.00
2023-03-02T06:41:15.464Z,29.63
2023-03-02T06:43:45.336Z,29.50
2023-03-02T06:46:14.079Z,32.07
2023-03-02T06:48:42.213Z,26.27
2023-03-02T06:51:12.954Z,27.23
2023-03-02T06:53:41.370Z,28.93
2023-03-02T06:56:10.246Z,30.40
2023-03-02T06:58:38.761Z,31.37
2023-03-02T07:01:09.065Z,27.97
2023-03-02T07:03:37.585Z,23.87
2023-03-02T07:06:06.335Z,29.10
2023-03-02T07:08:36.240Z,28.87
2023-03-02T07:11:10.841Z,28.23
2023-03-02T07:13:39.439Z,28.83
2023-03-02T07:16:11.802Z,30.60
2023-03-02T07:18:41.001Z,24.50
2023-03-02T07:21:09.299Z,23.80
2023-03-02T07:23:37.264Z,28.90
2023-03-02T07:26:08.737Z,25.83
2023-03-02T07:28:39.920Z,23.43
2023-03-02T07:31:12.985Z,26.93
2023-03-02T07:33:42.778Z,25.53
2023-03-02T07:36:11.250Z,25.20
2023-03-02T07:38:40.149Z,26.87
2023-03-02T07:41:09.348Z,28.97
2023-03-02T07:43:38.697Z,27.83
2023-03-02T07:46:09.007Z,26.73
2023-03-02T07:48:39.082Z,27.70
2023-03-02T07:51:08.518Z,25.60
2023-03-02T07:53:40.187Z,26.50
2023-03-02T07:56:09.591Z,30.93
2023-03-02T07:58:38.529Z,28.07
2023-03-02T08:01:07.126Z,27.40
2023-03-02T08:03:35.659Z,27.03
2023-03-02T08:06:09.084Z,30.20
2023-03-02T08:08:37.812Z,29.53
2023-03-02T08:11:07.431Z,28.17
2023-03-02T08:13:37.676Z,23.87
2023-03-02T08:16:08.446Z,29.30
2023-03-02T08:18:37.429Z,25.80
2023-03-02T08:21:12.922Z,21.83
2023-03-02T08:23:41.684Z,29.90
2023-03-02T08:26:13.456Z,26.30
2023-03-02T08:28:42.828Z,23.13
2023-03-02T08:31:12.660Z,25.03
2023-03-02T08:33:40.997Z,24.30
2023-03-02T08:36:13.917Z,26.20
2023-03-02T08:38:42.337Z,24.80
2023-03-02T08:41:13.704Z,21.23
2023-03-02T08:43:42.069Z,22.23
2023-03-02T08:46:13.072Z,26.97
2023-03-02T08:48:41.875Z,22.43
2023-03-02T08:51:14.489Z,23.77
2023-03-02T08:53:44.708Z,23.30
2023-03-02T08:56:21.621Z,22.60
2023-03-02T08:58:51.078Z,22.90
2023-03-02T09:01:22.651Z,22.87
2023-03-02T09:03:51.144Z,18.50
2023-03-02T09:06:21.009Z,21.93
2023-03-02T09:08:49.796Z,23.23
2023-03-02T09:11:19.114Z,19.53
2023-03-02T09:13:47.110Z,21.73
2023-03-02T09:16:16.154Z,20.30
2023-03-02T09:18:44.213Z,18.90
2023-03-02T09:21:12.393Z,22.07
2023-03-02T09:23:41.802Z,22.07
2023-03-02T09:26:10.543Z,23.77
2023-03-02T09:28:39.707Z,20.87
2023-03-02T09:31:09.376Z,18.97
2023-03-02T09:33:37.809Z,21.53
2023-03-02T09:36:11.777Z,19.67
2023-03-02T09:38:42.039Z,17.70
2023-03-02T09:41:38.004Z,20.50
2023-03-02T09:44:22.657Z,17.93
2023-03-02T09:46:53.284Z,19.33
2023-03-02T09:49:33.667Z,19.70
2023-03-02T09:52:12.203Z,21.33
2023-03-02T09:54:42.315Z,19.13
2023-03-02T09:57:22.452Z,21.03
2023-03-02T10:00:03.778Z,21.77
2023-03-02T10:02:48.736Z,20.10
2023-03-02T10:05:19.588Z,20.60
2023-03-02T10:07:48.817Z,20.80
2023-03-02T10:10:27.345Z,21.33
2023-03-02T10:13:19.448Z,16.33
2023-03-02T10:15:57.416Z,19.83
2023-03-02T10:18:30.272Z,20.20
2023-03-02T10:21:04.977Z,20.50
2023-03-02T10:23:42.650Z,20.27
2023-03-02T10:26:24.643Z,21.27
2023-03-02T10:29:01.414Z,18.63
2023-03-02T10:31:31.508Z,20.30
2023-03-02T10:34:01.257Z,19.53
2023-03-02T10:36:32.300Z,20.03
2023-03-02T10:39:01.634Z,17.27
2023-03-02T10:41:35.803Z,16.93
2023-03-02T10:44:08.740Z,19.30
2023-03-02T10:46:42.402Z,18.10
2023-03-02T10:49:35.980Z,17.87
2023-03-02T10:52:07.213Z,19.20
2023-03-02T10:54:36.909Z,19.77
2023-03-02T10:57:30.053Z,19.17
2023-03-02T11:00:03.790Z,18.47
2023-03-02T11:02:35.933Z,16.67
2023-03-02T11:05:31.660Z,17.93
2023-03-02T11:08:01.440Z,17.27
2023-03-02T11:10:36.553Z,21.30
2023-03-02T11:13:17.888Z,19.33
2023-03-02T11:15:48.945Z,17.30
2023-03-02T11:18:26.017Z,23.47
2023-03-02T11:20:58.761Z,17.37
2023-03-02T11:23:35.494Z,19.37
2023-03-02T11:26:11.550Z,18.87
2023-03-02T11:28:47.941Z,17.03
2023-03-02T11:31:24.954Z,19.30
2023-03-02T11:34:11.580Z,19.87
2023-03-02T11:36:54.994Z,21.90
2023-03-02T11:39:29.041Z,18.90
2023-03-02T11:41:57.134Z,16.17
2023-03-02T11:44:27.497Z,17.27
2023-03-02T11:47:01.197Z,20.43
2023-03-02T11:49:39.220Z,19.23
2023-03-02T11:52:17.164Z,14.87
2023-03-02T11:54:55.558Z,17.40
2023-03-02T11:57:38.581Z,15.73
2023-03-02T12:00:22.996Z,16.90
2023-03-02T12:03:00.445Z,19.37
2023-03-02T12:05:31.673Z,19.63
2023-03-02T12:08:07.167Z,20.40
2023-03-02T12:10:59.550Z,15.67
2023-03-02T12:13:30.781Z,16.53
2023-03-02T12:16:01.915Z,18.20
2023-03-02T12:18:49.068Z,19.30
2023-03-02T12:21:23.799Z,20.77
2023-03-02T12:24:08.031Z,15.80
2023-03-02T12:26:41.647Z,16.17
2023-03-02T12:29:25.609Z,18.57
2023-03-02T12:31:57.745Z,18.63
2023-03-02T12:34:41.777Z,18.43
2023-03-02T12:37:38.040Z,17.03
2023-03-02T12:40:29.832Z,16.53
2023-03-02T12:43:33.006Z,14.27
2023-03-02T12:46:37.271Z,16.33
2023-03-02T12:49:45.877Z,17.73
2023-03-02T12:52:33.870Z,16.47
2023-03-02T12:55:29.344Z,15.07
2023-03-02T12:58:09.455Z,17.07
2023-03-02T13:01:01.457Z,17.17
2023-03-02T13:03:49.586Z,16.83
2023-03-02T13:06:25.906Z,16.57
2023-03-02T13:09:21.952Z,15.23
2023-03-02T13:11:54.973Z,13.60
2023-03-02T13:14:27.946Z,15.53
2023-03-02T13:17:04.403Z,16.23
2023-03-02T13:19:59.767Z,21.17
2023-03-02T13:22:56.658Z,19.80
2023-03-02T13:25:35.514Z,19.67
2023-03-02T13:28:26.372Z,16.97
2023-03-02T13:31:09.775Z,16.03
2023-03-02T13:33:57.281Z,20.53
2023-03-02T13:36:44.085Z,20.27
2023-03-02T13:39:29.340Z,16.43
2023-03-02T13:42:31.464Z,18.60
2023-03-02T13:45:34.314Z,19.37
2023-03-02T13:48:22.487Z,18.50
2023-03-02T13:51:21.820Z,17.87
2023-03-02T13:53:57.867Z,21.00
2023-03-02T13:56:40.924Z,21.70
2023-03-02T13:59:21.198Z,18.30
2023-03-02T14:01:56.692Z,19.73
2023-03-02T14:04:39.586Z,19.53
2023-03-02T14:07:28.214Z,16.97
2023-03-02T14:09:57.676Z,16.70
2023-03-02T14:12:33.095Z,19.10
2023-03-02T14:15:04.937Z,18.00
2023-03-02T14:17:34.253Z,18.27
2023-03-02T14:20:03.789Z,19.87
2023-03-02T14:22:32.379Z,19.97
2023-03-02T14:25:03.850Z,19.30
2023-03-02T14:27:47.607Z,20.43
2023-03-02T14:30:23.397Z,19.00
2023-03-02T14:33:07.798Z,15.87
2023-03-02T14:35:56.745Z,13.83
2023-03-02T14:38:47.692Z,21.23
2023-03-02T14:41:43.873Z,19.53
2023-03-02T14:44:40.220Z,18.43
2023-03-02T14:47:30.159Z,18.00
2023-03-02T14:50:25.800Z,19.63
2023-03-02T14:53:13.014Z,12.20
2023-03-02T14:55:57.835Z,18.47
2023-03-02T14:58:40.412Z,21.53
2023-03-02T15:01:17.539Z,19.60
2023-03-02T15:03:55.253Z,19.87
2023-03-02T15:06:45.614Z,16.80
2023-03-02T15:09:25.126Z,15.63
2023-03-02T15:12:06.602Z,17.13
2023-03-02T15:15:00.646Z,20.57
2023-03-02T15:17:43.294Z,14.67
2023-03-02T15:20:20.879Z,15.00
2023-03-02T15:22:58.014Z,12.93
2023-03-02T15:25:35.600Z,19.23
2023-03-02T15:28:23.501Z,21.70
2023-03-02T15:30:56.166Z,18.00
2023-03-02T15:33:25.885Z,14.67
2023-03-02T15:35:55.469Z,18.47
2023-03-02T15:38:23.639Z,15.83
2023-03-02T15:40:51.709Z,19.00
2023-03-02T15:43:19.914Z,20.03
2023-03-02T15:45:47.964Z,14.93
2023-03-02T15:48:16.258Z,19.33
2023-03-02T15:50:57.386Z,13.70
2023-03-02T15:53:25.230Z,20.60
2023-03-02T15:55:53.174Z,18.93
2023-03-02T15:58:21.877Z,16.77
2023-03-02T16:00:49.910Z,15.97
2023-03-02T16:03:19.333Z,16.17
2023-03-02T16:05:48.762Z,18.50
2023-03-02T16:08:16.755Z,16.67
2023-03-02T16:10:44.792Z,15.60
2023-03-02T16:13:14.238Z,18.20
2023-03-02T16:15:42.972Z,19.23
2023-03-02T16:18:14.399Z,17.73
2023-03-02T16:20:42.249Z,13.47
2023-03-02T16:23:12.615Z,17.40
2023-03-02T16:25:43.509Z,15.07
2023-03-02T16:28:12.645Z,18.57
2023-03-02T16:30:41.072Z,17.07
2023-03-02T16:33:12.970Z,16.87
2023-03-02T16:35:40.857Z,13.03
2023-03-02T16:38:09.850Z,20.47
2023-03-02T16:40:40.139Z,19.47
2023-03-02T16:43:10.789Z,19.83
2023-03-02T16:45:38.983Z,17.33
2023-03-02T16:48:08.062Z,21.77
2023-03-02T16:50:37.769Z,17.97
2023-03-02T16:53:06.637Z,18.47
2023-03-02T16:55:34.994Z,19.03
2023-03-02T16:58:05.146Z,18.90
2023-03-02T17:00:49.063Z,18.53
2023-03-02T17:03:22.220Z,15.93
2023-03-02T17:05:50.696Z,18.93
2023-03-02T17:08:19.836Z,19.17
2023-03-02T17:10:56.763Z,14.67
2023-03-02T17:13:26.922Z,20.90
2023-03-02T17:15:56.562Z,16.17
2023-03-02T17:18:31.078Z,20.67
2023-03-02T17:21:01.770Z,21.07
2023-03-02T17:23:31.241Z,15.60
2023-03-02T17:25:59.904Z,21.07
2023-03-02T17:28:30.052Z,18.67
2023-03-02T17:31:01.036Z,25.93
2023-03-02T17:33:29.891Z,21.10
2023-03-02T17:36:03.560Z,22.08
2023-03-02T17:38:31.662Z,24.02
2023-03-02T17:41:03.314Z,21.63
2023-03-02T17:43:38.890Z,27.17
2023-03-02T17:46:17.056Z,20.97
2023-03-02T17:49:00.783Z,22.95
2023-03-02T17:51:41.596Z,24.13
2023-03-02T17:54:10.887Z,21.87
2023-03-02T17:56:39.705Z,20.37
2023-03-02T17:59:13.193Z,22.20
2023-03-02T18:01:47.046Z,22.77
2023-03-02T18:04:35.131Z,18.73
2023-03-02T18:07:08.234Z,22.40
2023-03-02T18:09:39.547Z,22.50
2023-03-02T18:12:08.723Z,25.90
2023-03-02T18:15:02.214Z,21.15
2023-03-02T18:17:39.106Z,23.75
2023-03-02T18:20:11.845Z,25.52
2023-03-02T18:22:49.995Z,24.53
2023-03-02T18:25:22.566Z,24.42
2023-03-02T18:28:06.423Z,26.63
2023-03-02T18:30:35.924Z,24.45
2023-03-02T18:33:04.147Z,20.63
2023-03-02T18:35:32.235Z,20.93
2023-03-02T18:38:00.357Z,24.30
2023-03-02T18:40:29.720Z,18.80
2023-03-02T18:42:58.100Z,22.03
2023-03-02T18:45:28.636Z,18.73
2023-03-02T18:47:59.111Z,21.40
2023-03-02T18:50:29.751Z,19.20
2023-03-02T18:52:57.977Z,22.60
2023-03-02T18:55:26.439Z,22.30
2023-03-02T18:57:55.227Z,24.73
2023-03-02T19:00:27.980Z,22.70
2023-03-02T19:02:58.374Z,20.90
2023-03-02T19:05:29.680Z,23.97
2023-03-02T19:08:04.866Z,24.33
2023-03-02T19:10:54.779Z,23.97
2023-03-02T19:13:28.929Z,20.67
2023-03-02T19:16:14.815Z,17.27
2023-03-02T19:18:50.059Z,16.03
2023-03-02T19:21:23.520Z,22.77
2023-03-02T19:23:53.307Z,24.90
2023-03-02T19:26:21.730Z,24.30
2023-03-02T19:28:53.300Z,21.50
2023-03-02T19:31:27.672Z,25.60
2023-03-02T19:33:57.256Z,25.53
2023-03-02T19:36:25.235Z,21.17
2023-03-02T19:38:53.198Z,20.77
2023-03-02T19:41:28.755Z,20.07
2023-03-02T19:44:12.617Z,19.67
2023-03-02T19:46:40.795Z,20.90
2023-03-02T19:49:10.482Z,24.00
2023-03-02T19:51:39.438Z,30.27
2023-03-02T19:54:07.554Z,27.10
2023-03-02T19:56:39.881Z,29.17
2023-03-02T19:59:08.428Z,28.53
2023-03-02T20:01:36.459Z,21.80
2023-03-02T20:04:05.327Z,23.60
2023-03-02T20:06:37.113Z,26.07
2023-03-02T20:09:06.814Z,26.87
2023-03-02T20:11:38.288Z,25.37
2023-03-02T20:14:06.164Z,28.13
2023-03-02T20:16:36.493Z,29.07
2023-03-02T20:19:05.709Z,29.63
2023-03-02T20:21:37.896Z,22.97
2023-03-02T20:24:06.449Z,27.97
2023-03-02T20:26:35.359Z,21.57
2023-03-02T20:29:05.322Z,22.03
2023-03-02T20:31:35.247Z,20.13
2023-03-02T20:34:05.993Z,20.10
2023-03-02T20:36:38.245Z,25.97
2023-03-02T20:39:09.475Z,26.10
2023-03-02T20:41:37.803Z,23.03
2023-03-02T20:44:07.010Z,28.57
2023-03-02T20:46:39.238Z,24.77
2023-03-02T20:49:16.562Z,26.73
2023-03-02T20:52:06.164Z,28.10
2023-03-02T20:54:38.287Z,24.97
2023-03-02T20:57:08.370Z,24.37
2023-03-02T20:59:38.134Z,23.03
2023-03-02T21:02:06.853Z,27.23
2023-03-02T21:04:36.099Z,26.47
2023-03-02T21:07:05.829Z,29.77
2023-03-02T21:09:33.933Z,26.03
2023-03-02T21:12:02.382Z,20.27
2023-03-02T21:14:30.720Z,24.30
2023-03-02T21:16:59.008Z,28.83
2023-03-02T21:19:29.084Z,26.37
2023-03-02T21:22:00.056Z,27.37
2023-03-02T21:24:29.356Z,25.43
2023-03-02T21:27:00.322Z,24.20
2023-03-02T21:29:28.487Z,24.77
2023-03-02T21:31:56.556Z,25.50
2023-03-02T21:34:24.563Z,24.60
2023-03-02T21:36:53.858Z,25.23
2023-03-02T21:39:23.602Z,19.37
2023-03-02T21:41:53.737Z,29.93
2023-03-02T21:44:22.342Z,28.43
2023-03-02T21:46:52.802Z,30.50
2023-03-02T21:49:23.664Z,28.23
2023-03-02T21:51:51.532Z,25.80
2023-03-02T21:54:19.555Z,27.13
2023-03-02T21:56:47.799Z,29.47
2023-03-02T21:59:17.493Z,25.87
2023-03-02T22:01:45.648Z,28.73
2023-03-02T22:04:14.055Z,26.93
2023-03-02T22:06:42.051Z,26.50
2023-03-02T22:09:11.253Z,25.27
2023-03-02T22:11:40.011Z,28.97
2023-03-02T22:14:14.273Z,28.17
2023-03-02T22:16:48.286Z,27.23
2023-03-02T22:19:25.600Z,28.13
2023-03-02T22:21:54.687Z,29.60
2023-03-02T22:24:25.510Z,33.27
2023-03-02T22:26:58.866Z,31.43
2023-03-02T22:29:29.532Z,35.27
2023-03-02T22:32:16.494Z,29.70
2023-03-02T22:34:46.120Z,34.03
2023-03-02T22:37:17.616Z,33.77
2023-03-02T22:39:46.167Z,33.50
2023-03-02T22:42:16.490Z,35.67
2023-03-02T22:44:44.603Z,33.93
2023-03-02T22:47:20.262Z,36.77
2023-03-02T22:49:58.047Z,35.37
2023-03-02T22:52:35.371Z,35.80
2023-03-02T22:55:04.101Z,35.57
2023-03-02T22:57:34.791Z,33.07
2023-03-02T23:00:31.114Z,32.33
2023-03-02T23:03:00.592Z,28.40
2023-03-02T23:05:30.828Z,29.17
2023-03-02T23:08:16.070Z,31.23
2023-03-02T23:10:44.539Z,30.50
2023-03-02T23:13:14.191Z,25.47
2023-03-02T23:15:42.631Z,30.80
2023-03-02T23:18:19.766Z,29.40
2023-03-02T23:20:50.627Z,26.10
2023-03-02T23:23:19.801Z,26.17
2023-03-02T23:25:48.159Z,28.37
2023-03-02T23:28:16.296Z,29.87
2023-03-02T23:30:44.166Z,28.10
2023-03-02T23:33:13.838Z,24.60
2023-03-02T23:35:41.962Z,28.73
2023-03-02T23:38:10.008Z,26.37
2023-03-02T23:40:38.304Z,29.03
2023-03-02T23:43:06.319Z,20.50
2023-03-02T23:45:34.244Z,29.20
2023-03-02T23:48:02.412Z,26.83
2023-03-02T23:50:31.798Z,22.03
2023-03-02T23:52:59.750Z,20.33
2023-03-02T23:55:28.092Z,20.93
2023-03-02T23:57:56.055Z,28.67
